createdAt,value
2023-04-28T00:01:15.708Z,85.93
2023-04-28T00:03:45.579Z,86.11
2023-04-28T00:06:14.916Z,86.37
2023-04-28T00:08:46.122Z,87.09
2023-04-28T00:11:15.821Z,87.05
2023-04-28T00:16:30.814Z,87.18
2023-04-28T00:19:11.460Z,87.37
2023-04-28T00:21:40.993Z,87.18
2023-04-28T00:24:13.427Z,87.13
2023-04-28T00:26:48.454Z,87.14
2023-04-28T00:29:17.719Z,87.18
2023-04-28T00:31:47.021Z,87.76
2023-04-28T00:34:16.646Z,87.55
2023-04-28T00:36:46.282Z,87.86
2023-04-28T00:39:25.564Z,88.50
2023-04-28T00:41:54.984Z,88.08
2023-04-28T00:44:29.465Z,88.58
2023-04-28T00:47:00.576Z,88.80
2023-04-28T00:49:35.024Z,88.97
2023-04-28T00:52:07.200Z,89.27
2023-04-28T00:54:39.892Z,89.55
2023-04-28T00:57:27.835Z,89.06
2023-04-28T01:00:10.150Z,89.38
2023-04-28T01:02:39.738Z,88.97
2023-04-28T01:05:11.158Z,89.57
2023-04-28T01:07:40.768Z,88.86
2023-04-28T01:10:14.285Z,89.20
2023-04-28T01:12:43.821Z,88.88
2023-04-28T01:15:31.977Z,89.89
2023-04-28T01:18:01.987Z,89.70
2023-04-28T01:20:31.866Z,89.83
2023-04-28T01:25:38.362Z,89.66
2023-04-28T01:28:07.773Z,89.61
2023-04-28T01:30:37.326Z,88.69
2023-04-28T01:33:07.116Z,88.39
2023-04-28T01:35:36.469Z,88.52
2023-04-28T01:38:18.779Z,89.01
2023-04-28T01:40:50.263Z,88.97
2023-04-28T01:43:20.778Z,89.25
2023-04-28T01:45:50.146Z,89.16
2023-04-28T01:48:19.489Z,88.98
2023-04-28T01:51:09.048Z,89.19
2023-04-28T01:53:41.186Z,88.75
2023-04-28T01:56:30.889Z,88.94
2023-04-28T01:59:01.621Z,88.77
2023-04-28T02:01:31.602Z,88.93
2023-04-28T02:04:06.406Z,89.31
2023-04-28T02:06:47.391Z,89.09
2023-04-28T02:09:30.161Z,88.43
2023-04-28T02:12:26.658Z,88.66
2023-04-28T02:15:11.014Z,87.77
2023-04-28T02:17:46.996Z,87.72
2023-04-28T02:20:33.286Z,87.85
2023-04-28T02:23:08.158Z,87.65
2023-04-28T02:25:42.897Z,88.00
2023-04-28T02:28:17.785Z,87.60
2023-04-28T02:30:47.336Z,86.84
2023-04-28T02:33:29.625Z,86.42
2023-04-28T02:36:01.527Z,86.50
2023-04-28T02:38:31.251Z,86.05
2023-04-28T02:41:19.206Z,85.70
2023-04-28T02:43:56.724Z,85.55
2023-04-28T02:46:26.589Z,84.93
2023-04-28T02:49:01.309Z,85.40
2023-04-28T02:51:31.364Z,85.23
2023-04-28T02:54:00.871Z,84.78
2023-04-28T02:56:50.312Z,84.77
2023-04-28T02:59:21.657Z,85.03
2023-04-28T03:01:51.535Z,84.51
2023-04-28T03:04:21.308Z,84.28
2023-04-28T03:06:57.466Z,83.74
2023-04-28T03:09:26.773Z,83.82
2023-04-28T03:11:56.152Z,84.10
2023-04-28T03:14:27.389Z,83.71
2023-04-28T03:16:57.524Z,83.55
2023-04-28T03:19:26.803Z,82.90
2023-04-28T03:21:56.192Z,82.95
2023-04-28T03:24:30.758Z,82.55
2023-04-28T03:27:01.860Z,82.78
2023-04-28T03:29:34.016Z,82.67
2023-04-28T03:32:03.893Z,82.78
2023-04-28T03:34:33.118Z,81.94
2023-04-28T03:37:13.058Z,82.40
2023-04-28T03:39:43.682Z,82.38
2023-04-28T03:42:13.290Z,82.35
2023-04-28T03:45:03.125Z,82.43
2023-04-28T03:47:41.012Z,82.33
2023-04-28T03:50:11.125Z,81.63
2023-04-28T03:52:41.385Z,81.87
2023-04-28T03:55:11.677Z,81.47
2023-04-28T03:57:41.319Z,80.78
2023-04-28T04:00:14.676Z,80.27
2023-04-28T04:02:55.348Z,79.85
2023-04-28T04:05:41.708Z,79.57
2023-04-28T04:08:11.077Z,79.06
2023-04-28T04:10:40.522Z,78.67
2023-04-28T04:13:10.457Z,78.08
2023-04-28T04:15:41.845Z,77.38
2023-04-28T04:18:11.549Z,76.37
2023-04-28T04:21:06.589Z,74.65
2023-04-28T04:23:38.917Z,74.97
2023-04-28T04:26:08.305Z,74.60
2023-04-28T04:28:37.845Z,74.19
2023-04-28T04:31:11.128Z,74.38
2023-04-28T04:33:51.451Z,73.83
2023-04-28T04:36:42.444Z,73.80
2023-04-28T04:39:12.201Z,73.29
2023-04-28T04:41:41.917Z,72.14
2023-04-28T04:44:34.313Z,70.82
2023-04-28T04:47:06.972Z,68.60
2023-04-28T04:49:37.852Z,68.38
2023-04-28T04:52:07.983Z,67.92
2023-04-28T04:54:42.485Z,67.80
2023-04-28T04:57:13.786Z,67.32
2023-04-28T05:00:01.585Z,66.97
2023-04-28T05:02:39.520Z,65.48
2023-04-28T05:05:20.449Z,66.60
2023-04-28T05:08:14.611Z,67.23
2023-04-28T05:11:04.485Z,67.04
2023-04-28T05:13:34.529Z,67.10
2023-04-28T05:16:06.462Z,66.97
2023-04-28T05:18:55.067Z,67.65
2023-04-28T05:21:29.507Z,67.73
2023-04-28T05:23:59.127Z,67.77
2023-04-28T05:26:28.689Z,68.05
2023-04-28T05:29:02.437Z,67.58
2023-04-28T05:31:31.916Z,67.60
2023-04-28T05:34:03.638Z,67.41
2023-04-28T05:36:33.028Z,67.20
2023-04-28T05:39:02.426Z,66.86
2023-04-28T05:41:31.904Z,67.10
2023-04-28T05:44:02.830Z,67.13
2023-04-28T05:46:33.228Z,67.25
2023-04-28T05:49:05.744Z,67.10
2023-04-28T05:51:42.007Z,66.79
2023-04-28T05:54:16.592Z,66.22
2023-04-28T05:56:54.042Z,65.92
2023-04-28T05:59:23.771Z,64.91
2023-04-28T06:01:53.010Z,64.02
2023-04-28T06:07:05.763Z,63.59
2023-04-28T06:09:36.487Z,63.25
2023-04-28T06:12:06.334Z,63.77
2023-04-28T06:14:37.948Z,64.09
2023-04-28T06:17:07.241Z,63.52
2023-04-28T06:19:50.980Z,61.84
2023-04-28T06:22:22.475Z,60.13
2023-04-28T06:24:56.900Z,58.88
2023-04-28T06:27:34.631Z,57.83
2023-04-28T06:30:04.381Z,57.31
2023-04-28T06:32:34.361Z,56.65
2023-04-28T06:35:05.105Z,56.60
2023-04-28T06:37:36.633Z,56.37
2023-04-28T06:40:16.501Z,56.64
2023-04-28T06:42:53.786Z,57.14
2023-04-28T06:45:28.636Z,57.20
2023-04-28T06:48:00.400Z,57.59
2023-04-28T06:50:34.997Z,58.53
2023-04-28T06:53:11.036Z,59.15
2023-04-28T06:55:40.685Z,60.96
2023-04-28T06:58:10.083Z,62.06
2023-04-28T07:00:39.413Z,62.34
2023-04-28T07:03:09.301Z,63.72
2023-04-28T07:05:38.996Z,63.75
2023-04-28T07:08:10.485Z,63.27
2023-04-28T07:10:39.541Z,63.00
2023-04-28T07:13:08.636Z,62.58
2023-04-28T07:15:37.929Z,62.46
2023-04-28T07:18:07.540Z,62.76
2023-04-28T07:20:37.112Z,63.93
2023-04-28T07:23:06.424Z,64.72
2023-04-28T07:25:37.975Z,65.83
2023-04-28T07:28:07.342Z,64.28
2023-04-28T07:30:42.300Z,64.45
2023-04-28T07:33:11.827Z,63.55
2023-04-28T07:35:41.137Z,63.71
2023-04-28T07:38:10.773Z,64.17
2023-04-28T07:40:41.963Z,64.34
2023-04-28T07:43:29.799Z,64.71
2023-04-28T07:45:59.533Z,65.70
2023-04-28T07:48:28.992Z,65.82
2023-04-28T07:50:58.504Z,65.48
2023-04-28T07:53:28.332Z,65.29
2023-04-28T07:55:59.636Z,64.93
2023-04-28T07:58:52.525Z,63.26
2023-04-28T08:01:38.057Z,62.49
2023-04-28T08:04:22.718Z,61.26
2023-04-28T08:09:27.152Z,60.75
2023-04-28T08:12:01.338Z,61.21
2023-04-28T08:14:30.766Z,61.15
2023-04-28T08:17:00.445Z,60.94
2023-04-28T08:19:29.915Z,60.88
2023-04-28T08:21:59.748Z,61.23
2023-04-28T08:24:30.123Z,61.32
2023-04-28T08:27:02.757Z,61.75
2023-04-28T08:29:32.650Z,61.42
2023-04-28T08:32:01.987Z,61.14
2023-04-28T08:34:42.350Z,60.50
2023-04-28T08:37:11.929Z,60.21
2023-04-28T08:39:41.066Z,59.29
2023-04-28T08:42:12.685Z,59.26
2023-04-28T08:44:42.085Z,59.47
2023-04-28T08:47:15.953Z,60.39
2023-04-28T08:49:47.390Z,60.47
2023-04-28T08:52:19.818Z,60.71
2023-04-28T08:54:51.657Z,61.05
2023-04-28T08:57:30.067Z,61.53
2023-04-28T09:00:01.902Z,61.66
2023-04-28T09:02:39.512Z,62.60
2023-04-28T09:05:10.612Z,62.83
2023-04-28T09:07:40.363Z,63.70
2023-04-28T09:10:21.081Z,64.64
2023-04-28T09:12:55.365Z,64.93
2023-04-28T09:15:34.552Z,64.70
2023-04-28T09:18:04.959Z,64.03
2023-04-28T09:20:36.332Z,63.88
2023-04-28T09:23:17.057Z,65.72
2023-04-28T09:26:01.247Z,65.95
2023-04-28T09:28:33.597Z,66.41
2023-04-28T09:31:03.796Z,67.10
2023-04-28T09:33:33.505Z,69.04
2023-04-28T09:38:46.737Z,70.94
2023-04-28T09:41:16.238Z,71.01
2023-04-28T09:43:47.655Z,71.67
2023-04-28T09:46:31.590Z,72.04
2023-04-28T09:49:03.977Z,72.64
2023-04-28T09:51:34.321Z,73.50
2023-04-28T09:54:04.364Z,74.74
2023-04-28T09:56:40.451Z,76.08
2023-04-28T09:59:12.063Z,77.24
2023-04-28T10:01:45.344Z,77.94
2023-04-28T10:04:15.261Z,77.92
2023-04-28T10:06:46.477Z,78.82
2023-04-28T10:09:17.396Z,79.67
2023-04-28T10:11:47.007Z,79.94
2023-04-28T10:14:18.195Z,81.26
2023-04-28T10:16:54.672Z,80.24
2023-04-28T10:19:29.005Z,79.49
2023-04-28T10:22:12.150Z,79.80
2023-04-28T10:25:01.661Z,80.22
2023-04-28T10:27:48.085Z,79.23
2023-04-28T10:33:26.362Z,77.10
2023-04-28T10:35:55.763Z,73.93
2023-04-28T10:38:24.923Z,71.83
2023-04-28T10:41:05.814Z,69.55
2023-04-28T10:43:37.726Z,68.87
2023-04-28T10:46:15.797Z,67.44
2023-04-28T10:48:58.592Z,66.27
2023-04-28T10:51:32.144Z,65.65
2023-04-28T10:54:18.847Z,64.58
2023-04-28T10:57:18.703Z,62.61
2023-04-28T10:59:48.108Z,63.74
2023-04-28T11:02:49.222Z,64.99
2023-04-28T11:05:21.495Z,65.95
2023-04-28T11:08:35.571Z,67.32
2023-04-28T11:11:29.143Z,69.13
2023-04-28T11:14:33.689Z,69.95
2023-04-28T11:17:04.987Z,70.88
2023-04-28T11:19:38.700Z,72.26
2023-04-28T11:22:16.721Z,72.46
2023-04-28T11:25:00.560Z,73.54
2023-04-28T11:27:31.456Z,73.23
2023-04-28T11:30:06.264Z,74.03
2023-04-28T11:32:39.841Z,73.10
2023-04-28T11:35:11.488Z,73.10
2023-04-28T11:37:46.864Z,72.23
2023-04-28T11:40:17.755Z,72.06
2023-04-28T11:42:51.776Z,72.59
2023-04-28T11:45:21.388Z,72.86
2023-04-28T11:47:50.664Z,72.12
2023-04-28T11:50:38.022Z,71.66
2023-04-28T11:53:07.626Z,71.07
2023-04-28T11:55:38.710Z,70.41
2023-04-28T11:58:27.220Z,70.12
2023-04-28T12:01:09.613Z,69.72
2023-04-28T12:03:46.374Z,71.06
2023-04-28T12:06:22.933Z,71.30
2023-04-28T12:08:52.431Z,72.82
2023-04-28T12:11:22.601Z,74.07
2023-04-28T12:14:21.513Z,75.84
2023-04-28T12:16:56.706Z,75.73
2023-04-28T12:19:31.482Z,76.38
2023-04-28T12:22:04.629Z,77.16
2023-04-28T12:24:35.629Z,76.96
2023-04-28T12:27:20.235Z,78.36
2023-04-28T12:29:50.408Z,77.80
2023-04-28T12:32:20.595Z,77.63
2023-04-28T12:35:00.078Z,79.33
2023-04-28T12:37:31.564Z,78.13
2023-04-28T12:40:06.688Z,76.91
2023-04-28T12:42:36.406Z,75.65
2023-04-28T12:51:52.192Z,72.86
2023-04-28T12:54:21.524Z,73.28
2023-04-28T12:57:01.558Z,73.74
2023-04-28T12:59:30.904Z,73.99
2023-04-28T13:02:00.584Z,74.39
2023-04-28T13:04:30.660Z,74.21
2023-04-28T13:07:02.434Z,73.85
2023-04-28T13:09:38.471Z,73.86
2023-04-28T13:12:13.605Z,74.94
2023-04-28T13:14:47.890Z,75.11
2023-04-28T13:17:17.137Z,75.71
2023-04-28T13:19:47.044Z,76.39
2023-04-28T13:22:23.600Z,77.36
2023-04-28T13:24:52.842Z,78.44
2023-04-28T13:27:21.981Z,79.75
2023-04-28T13:29:56.426Z,81.25
2023-04-28T13:35:03.486Z,84.89
2023-04-28T13:37:35.060Z,86.42
2023-04-28T13:40:10.962Z,87.60
2023-04-28T13:42:40.283Z,87.80
2023-04-28T13:45:10.379Z,88.26
2023-04-28T13:47:39.966Z,88.78
2023-04-28T13:50:11.126Z,89.09
2023-04-28T13:52:47.657Z,89.83
2023-04-28T13:55:17.133Z,90.26
2023-04-28T13:57:46.375Z,90.60
2023-04-28T14:00:17.335Z,90.71
2023-04-28T14:02:49.167Z,90.45
2023-04-28T14:05:23.859Z,90.86
2023-04-28T14:07:55.815Z,90.72
2023-04-28T14:10:26.336Z,91.48
2023-04-28T14:12:55.581Z,91.36
2023-04-28T14:15:24.845Z,91.97
2023-04-28T14:20:35.952Z,92.18
2023-04-28T14:23:17.264Z,92.40
2023-04-28T14:28:27.250Z,92.71
2023-04-28T14:30:56.996Z,93.03
2023-04-28T14:33:26.637Z,93.75
2023-04-28T14:35:55.946Z,93.29
2023-04-28T14:38:28.286Z,93.59
2023-04-28T14:40:57.995Z,93.00
2023-04-28T14:43:27.633Z,93.79
2023-04-28T14:45:57.033Z,94.07
2023-04-28T14:48:31.642Z,93.72
2023-04-28T14:51:06.290Z,93.74
2023-04-28T14:53:47.678Z,93.94
2023-04-28T14:56:18.585Z,94.44
2023-04-28T15:01:34.134Z,94.16
2023-04-28T15:04:03.929Z,94.29
2023-04-28T15:06:34.506Z,94.24
2023-04-28T15:09:06.541Z,94.17
2023-04-28T15:11:35.994Z,93.25
2023-04-28T15:14:06.110Z,93.53
2023-04-28T15:16:35.581Z,93.22
2023-04-28T15:19:06.039Z,93.63
2023-04-28T15:21:35.664Z,93.86
2023-04-28T15:24:07.132Z,93.97
2023-04-28T15:26:37.035Z,94.03
2023-04-28T15:29:06.743Z,94.58
2023-04-28T15:31:36.210Z,94.32
2023-04-28T15:34:05.619Z,93.99
2023-04-28T15:36:39.580Z,94.73
2023-04-28T15:39:10.949Z,94.35
2023-04-28T15:41:45.758Z,93.85
2023-04-28T15:44:15.535Z,94.08
2023-04-28T15:46:45.060Z,93.78
2023-04-28T15:49:19.497Z,94.23
2023-04-28T15:51:49.307Z,93.62
2023-04-28T15:54:20.703Z,92.91
2023-04-28T15:56:50.084Z,92.64
2023-04-28T15:59:19.349Z,92.60
2023-04-28T16:01:48.955Z,93.01
2023-04-28T16:04:18.761Z,93.34
2023-04-28T16:06:57.545Z,92.16
2023-04-28T16:09:30.618Z,91.71
2023-04-28T16:12:05.344Z,91.69
2023-04-28T16:14:36.054Z,92.38
2023-04-28T16:17:10.431Z,92.56
2023-04-28T16:19:39.973Z,91.67
2023-04-28T16:22:09.429Z,91.31
2023-04-28T16:24:43.469Z,91.16
2023-04-28T16:27:13.714Z,90.86
2023-04-28T16:29:43.011Z,91.00
2023-04-28T16:34:47.128Z,91.59
2023-04-28T16:37:16.545Z,90.90
2023-04-28T16:39:48.027Z,91.01
2023-04-28T16:42:27.890Z,90.32
2023-04-28T16:44:58.245Z,89.88
2023-04-28T16:47:28.116Z,90.47
2023-04-28T16:49:57.380Z,90.01
2023-04-28T16:52:26.778Z,89.52
2023-04-28T16:54:58.500Z,89.80
2023-04-28T16:57:33.718Z,89.90
2023-04-28T17:00:03.138Z,90.10
2023-04-28T17:02:35.755Z,90.91
2023-04-28T17:05:05.779Z,90.63
2023-04-28T17:07:35.122Z,90.82
2023-04-28T17:10:12.457Z,90.43
2023-04-28T17:12:44.903Z,90.11
2023-04-28T17:17:56.919Z,89.81
2023-04-28T17:20:26.550Z,90.48
2023-04-28T17:22:55.945Z,90.27
2023-04-28T17:25:27.195Z,90.67
2023-04-28T17:28:01.701Z,90.72
2023-04-28T17:30:31.338Z,91.08
2023-04-28T17:33:00.774Z,90.98
2023-04-28T17:35:35.369Z,90.68
2023-04-28T17:38:04.778Z,90.74
2023-04-28T17:40:36.489Z,90.67
2023-04-28T17:43:05.662Z,89.49
2023-04-28T17:45:34.845Z,89.70
2023-04-28T17:48:09.233Z,90.13
2023-04-28T17:50:38.659Z,89.73
2023-04-28T17:53:08.339Z,89.92
2023-04-28T17:55:39.631Z,89.93
2023-04-28T17:58:14.158Z,90.13
2023-04-28T18:00:44.818Z,91.10
2023-04-28T18:03:14.143Z,91.65
2023-04-28T18:05:43.560Z,91.73
2023-04-28T18:08:17.736Z,91.43
2023-04-28T18:10:49.410Z,91.66
2023-04-28T18:13:18.834Z,92.23
2023-04-28T18:15:48.204Z,92.17
2023-04-28T18:18:17.946Z,91.29
2023-04-28T18:20:47.411Z,91.12
2023-04-28T18:23:16.684Z,91.00
2023-04-28T18:25:45.970Z,91.53
2023-04-28T18:28:17.745Z,92.13
2023-04-28T18:30:44.859Z,92.79
2023-04-28T18:33:14.245Z,92.72
2023-04-28T18:35:48.828Z,93.01
2023-04-28T18:38:28.293Z,93.59
2023-04-28T18:40:57.644Z,93.26
2023-04-28T18:43:29.086Z,93.79
2023-04-28T18:46:02.288Z,93.67
2023-04-28T18:48:31.672Z,93.44
2023-04-28T18:51:01.843Z,93.47
2023-04-28T18:56:07.086Z,93.14
2023-04-28T18:58:40.417Z,93.35
2023-04-28T19:01:15.611Z,92.95
2023-04-28T19:03:45.468Z,93.51
2023-04-28T19:06:15.824Z,93.29
2023-04-28T19:08:45.254Z,92.85
2023-04-28T19:11:14.533Z,93.37
2023-04-28T19:16:21.069Z,93.20
2023-04-28T19:18:50.365Z,93.03
2023-04-28T19:23:59.954Z,93.38
2023-04-28T19:26:29.183Z,93.82
2023-04-28T19:31:38.979Z,94.39
2023-04-28T19:34:08.219Z,95.03
2023-04-28T19:36:42.483Z,95.21
2023-04-28T19:39:17.145Z,95.54
2023-04-28T19:41:52.384Z,95.44
2023-04-28T19:44:23.968Z,95.97
2023-04-28T19:46:53.552Z,96.25
2023-04-28T19:49:22.890Z,95.91
2023-04-28T19:51:52.742Z,96.01
2023-04-28T19:54:27.393Z,96.89
2023-04-28T19:59:44.045Z,95.27
2023-04-28T20:02:13.911Z,95.83
2023-04-28T20:04:43.774Z,95.93
2023-04-28T20:07:18.345Z,95.94
2023-04-28T20:09:47.703Z,97.14
2023-04-28T20:12:17.473Z,97.10
2023-04-28T20:14:49.077Z,97.26
2023-04-28T20:17:19.242Z,97.38
2023-04-28T20:19:48.703Z,96.91
2023-04-28T20:22:18.224Z,96.96
2023-04-28T20:24:47.398Z,96.90
2023-04-28T20:27:21.740Z,97.18
2023-04-28T20:29:57.991Z,98.15
2023-04-28T20:32:27.393Z,97.66
2023-04-28T20:34:56.723Z,97.28
2023-04-28T20:37:26.235Z,96.62
2023-04-28T20:40:00.610Z,96.54
2023-04-28T20:42:30.010Z,96.82
2023-04-28T20:45:01.766Z,97.52
2023-04-28T20:47:39.262Z,97.64
2023-04-28T20:50:10.609Z,97.92
2023-04-28T20:52:40.165Z,97.17
2023-04-28T20:57:50.844Z,97.32
2023-04-28T21:00:22.075Z,97.53
2023-04-28T21:02:51.823Z,97.71
2023-04-28T21:05:23.477Z,97.94
2023-04-28T21:07:57.823Z,98.13
2023-04-28T21:10:27.590Z,97.81
2023-04-28T21:12:56.883Z,98.23
2023-04-28T21:15:37.933Z,98.69
2023-04-28T21:18:07.253Z,98.58
2023-04-28T21:20:37.103Z,98.95
2023-04-28T21:23:12.429Z,99.38
2023-04-28T21:25:41.623Z,99.43
2023-04-28T21:28:11.606Z,99.95
2023-04-28T21:30:43.817Z,99.01
2023-04-28T21:33:13.917Z,98.21
2023-04-28T21:35:43.494Z,97.72
2023-04-28T21:40:48.392Z,97.47
2023-04-28T21:43:19.686Z,97.89
2023-04-28T21:45:53.520Z,97.77
2023-04-28T21:48:23.193Z,97.76
2023-04-28T21:50:52.408Z,97.78
2023-04-28T21:53:22.334Z,97.70
2023-04-28T21:55:51.590Z,98.14
2023-04-28T22:03:40.225Z,97.48
2023-04-28T22:06:09.941Z,97.70
2023-04-28T22:08:39.391Z,97.80
2023-04-28T22:11:09.348Z,97.92
2023-04-28T22:13:38.827Z,97.90
2023-04-28T22:16:15.090Z,97.59
2023-04-28T22:18:44.512Z,97.43
2023-04-28T22:21:30.364Z,96.97
2023-04-28T22:23:59.719Z,96.83
2023-04-28T22:26:32.579Z,96.83
2023-04-28T22:29:02.091Z,97.02
2023-04-28T22:31:38.499Z,97.02
2023-04-28T22:34:09.530Z,97.71
2023-04-28T22:36:44.391Z,97.94
2023-04-28T22:39:15.809Z,97.37
2023-04-28T22:41:51.774Z,97.33
2023-04-28T22:44:21.085Z,97.14
2023-04-28T22:46:57.694Z,96.97
2023-04-28T22:49:28.311Z,96.79
2023-04-28T22:51:58.800Z,96.43
2023-04-28T22:54:28.123Z,96.27
2023-04-28T22:57:03.918Z,96.04
2023-04-28T22:59:34.985Z,96.56
2023-04-28T23:02:06.853Z,96.44
2023-04-28T23:04:41.837Z,96.58
2023-04-28T23:07:11.208Z,96.70
2023-04-28T23:09:40.434Z,97.30
2023-04-28T23:12:09.787Z,97.47
2023-04-28T23:14:38.994Z,98.38
2023-04-28T23:17:10.479Z,98.27
2023-04-28T23:22:15.793Z,98.84
2023-04-28T23:24:44.973Z,99.79
2023-04-28T23:27:14.544Z,100.00
2023-04-28T23:29:43.696Z,100.00
2023-04-28T23:32:19.999Z,100.00
2023-04-28T23:34:49.226Z,100.00
2023-04-28T23:37:18.368Z,100.00
2023-04-28T23:39:47.657Z,100.00
2023-04-28T23:42:21.727Z,100.00
2023-04-28T23:44:52.288Z,100.00
2023-04-28T23:47:23.598Z,100.00
2023-04-28T23:49:53.101Z,100.00
2023-04-28T23:52:22.528Z,100.00
2023-04-28T23:54:58.624Z,100.00
2023-04-28T23:57:28.069Z,100.00
2023-04-28T23:59:57.315Z,100.00
